Time;durP1;ratioP1;P1;durP2;ratioP2;P2;SDS_P1;SDS_P2;PMS_P1;PMS_P2;Temp;Humidity;BMP_temperature;BMP_pressure;BME280_temperature;BME280_humidity;BME280_pressure;Samples;Min_cycle;Max_cycle;Signal;HPM_P1;HPM_P2
2021/03/08 00:00:41;;;;;;;15.43;11.20;;;;;;;-0.16;100.00;100719.61;1807024;78;21161;-90
2021/03/08 00:03:12;;;;;;;17.45;11.65;;;;;;;-0.17;100.00;100716.23;1807004;79;21554;-90
2021/03/08 00:05:41;;;;;;;17.05;11.73;;;;;;;-0.17;100.00;100708.97;1799620;79;28988;-90
2021/03/08 00:08:10;;;;;;;17.52;11.50;;;;;;;-0.20;100.00;100698.84;1807034;79;21145;-89
2021/03/08 00:10:39;;;;;;;17.85;11.15;;;;;;;-0.23;100.00;100704.04;1807045;78;21999;-89
2021/03/08 00:13:08;;;;;;;17.80;12.18;;;;;;;-0.24;100.00;100698.52;1816767;77;21149;-88
2021/03/08 00:15:36;;;;;;;17.42;12.70;;;;;;;-0.23;100.00;100698.92;1846020;77;21120;-89
2021/03/08 00:18:04;;;;;;;15.85;12.00;;;;;;;-0.24;100.00;100687.00;1845891;77;21720;-90
2021/03/08 00:20:32;;;;;;;17.62;11.28;;;;;;;-0.24;100.00;100681.88;1845929;77;21137;-89
2021/03/08 00:23:00;;;;;;;20.32;12.37;;;;;;;-0.24;100.00;100674.20;1845940;77;21522;-89
2021/03/08 00:25:33;;;;;;;16.07;11.18;;;;;;;-0.23;100.00;100677.16;1845795;77;21185;-89
2021/03/08 00:28:02;;;;;;;19.73;13.43;;;;;;;-0.22;100.00;100664.31;1846026;77;21133;-90
2021/03/08 00:30:29;;;;;;;20.15;13.20;;;;;;;-0.25;100.00;100656.75;1845884;77;21573;-89
2021/03/08 00:32:57;;;;;;;18.75;13.48;;;;;;;-0.24;100.00;100662.69;1845883;77;21137;-89
2021/03/08 00:35:26;;;;;;;22.67;12.93;;;;;;;-0.24;100.00;100655.01;1845784;77;21195;-89
2021/03/08 00:37:55;;;;;;;21.42;13.03;;;;;;;-0.24;100.00;100649.89;1845847;77;21592;-89
2021/03/08 00:40:25;;;;;;;19.23;12.50;;;;;;;-0.25;100.00;100637.97;1845844;77;21152;-89
2021/03/08 00:42:53;;;;;;;16.95;12.75;;;;;;;-0.25;100.00;100634.13;1845911;77;21463;-89
2021/03/08 00:45:23;;;;;;;21.20;12.28;;;;;;;-0.25;100.00;100634.13;1845890;77;21121;-89
2021/03/08 00:48:02;;;;;;;16.42;12.00;;;;;;;-0.23;100.00;100640.05;1841623;77;21428;-90
2021/03/08 00:50:31;;;;;;;18.90;12.70;;;;;;;-0.23;100.00;100638.31;1845896;77;21552;-90
2021/03/08 00:52:59;;;;;;;17.30;11.73;;;;;;;-0.24;100.00;100630.70;1845802;77;22257;-90
2021/03/08 00:55:29;;;;;;;18.10;11.30;;;;;;;-0.24;100.00;100616.63;1829122;77;21141;-90
2021/03/08 00:57:57;;;;;;;19.95;11.38;;;;;;;-0.24;100.00;100623.84;1845924;77;21101;-89
2021/03/08 01:00:29;;;;;;;15.40;11.63;;;;;;;-0.24;100.00;100621.28;1845936;77;21424;-90
2021/03/08 01:02:58;;;;;;;14.23;10.32;;;;;;;-0.25;100.00;100612.38;1840941;77;21196;-90
2021/03/08 01:05:27;;;;;;;17.62;11.90;;;;;;;-0.26;100.00;100609.42;1845831;77;21101;-90
2021/03/08 01:07:57;;;;;;;20.43;13.10;;;;;;;-0.28;100.00;100606.09;1845893;77;21061;-90
2021/03/08 01:10:29;;;;;;;20.15;12.55;;;;;;;-0.29;100.00;100608.25;1841903;77;21168;-90
2021/03/08 01:12:58;;;;;;;18.20;12.45;;;;;;;-0.32;100.00;100599.78;1815501;77;21365;-90
2021/03/08 01:15:27;;;;;;;21.00;13.93;;;;;;;-0.32;100.00;100601.05;1829397;77;21168;-89
2021/03/08 01:17:55;;;;;;;23.27;15.05;;;;;;;-0.32;100.00;100599.78;1807033;79;21176;-90
2021/03/08 01:20:23;;;;;;;20.35;13.88;;;;;;;-0.32;100.00;100593.80;1807057;78;21140;-90
2021/03/08 01:22:52;;;;;;;16.42;12.28;;;;;;;-0.30;100.00;100590.77;1806978;78;21553;-90
2021/03/08 01:25:25;;;;;;;19.87;12.35;;;;;;;-0.29;100.00;100593.72;1807080;78;21529;-90
2021/03/08 01:27:54;;;;;;;16.23;11.03;;;;;;;-0.28;100.00;100589.46;1799641;78;21564;-90
2021/03/08 01:30:26;;;;;;;17.17;11.53;;;;;;;-0.30;100.00;100588.20;1810164;76;21109;-90
2021/03/08 01:32:56;;;;;;;18.85;11.93;;;;;;;-0.33;100.00;100589.59;1836607;77;20991;-89
2021/03/08 01:35:25;;;;;;;15.75;11.53;;;;;;;-0.35;100.00;100583.68;1839993;77;21113;-89
2021/03/08 01:37:53;;;;;;;16.65;11.10;;;;;;;-0.36;100.00;100589.67;1809690;78;21358;-89
2021/03/08 01:40:27;;;;;;;16.15;12.00;;;;;;;-0.39;100.00;100590.61;1806976;79;21113;-89
2021/03/08 01:42:55;;;;;;;16.95;11.93;;;;;;;-0.41;100.00;100587.25;1823249;77;21106;-90
2021/03/08 01:45:24;;;;;;;14.68;11.18;;;;;;;-0.42;100.00;100576.62;1840054;78;21156;-90
2021/03/08 01:47:53;;;;;;;24.05;12.80;;;;;;;-0.42;100.00;100584.30;1839943;77;21110;-90
2021/03/08 01:50:37;;;;;;;20.95;11.90;;;;;;;-0.42;100.00;100578.35;1839970;77;21541;-90
2021/03/08 01:53:13;;;;;;;15.60;11.33;;;;;;;-0.44;100.00;100573.72;1840012;77;21069;-90
2021/03/08 01:55:42;;;;;;;15.58;12.47;;;;;;;-0.45;100.00;100572.03;1839948;77;21113;-90
2021/03/08 01:58:11;;;;;;;16.73;11.55;;;;;;;-0.47;100.00;100574.65;1839877;77;21554;-90
2021/03/08 02:00:41;;;;;;;16.95;11.55;;;;;;;-0.50;100.00;100579.84;1839985;77;21129;-90
2021/03/08 02:03:09;;;;;;;16.17;10.63;;;;;;;-0.52;100.00;100577.80;1839894;77;21179;-90
2021/03/08 02:05:41;;;;;;;14.05;10.50;;;;;;;-0.54;100.00;100573.98;1808616;78;21085;-90
2021/03/08 02:08:13;;;;;;;15.93;10.78;;;;;;;-0.55;100.00;100574.86;1807015;79;21584;-90
2021/03/08 02:10:44;;;;;;;15.28;10.63;;;;;;;-0.56;100.00;100577.02;1803902;78;21212;-90
2021/03/08 02:13:52;;;;;;;18.32;11.10;;;;;;;-0.58;100.00;100572.84;1808726;78;21145;-90
2021/03/08 02:16:34;;;;;;;18.82;12.00;;;;;;;-0.61;100.00;100569.11;1808848;78;21437;-89
2021/03/08 02:19:43;;;;;;;18.05;11.50;;;;;;;-0.64;100.00;100575.98;1810778;78;21581;-89
2021/03/08 02:22:50;;;;;;;19.20;12.73;;;;;;;-0.61;100.00;100577.61;1872178;76;22498;-89
2021/03/08 02:25:46;;;;;;;16.57;11.45;;;;;;;-0.66;100.00;100581.58;1840837;77;21093;-90
2021/03/08 02:28:34;;;;;;;17.77;12.80;;;;;;;-0.68;100.00;100580.77;1840911;77;22232;-90
2021/03/08 02:31:07;;;;;;;18.12;11.90;;;;;;;-0.69;100.00;100578.27;1840833;77;20999;-89
2021/03/08 02:33:37;;;;;;;16.57;12.43;;;;;;;-0.72;100.00;100577.92;1837579;77;21117;-89
2021/03/08 02:36:09;;;;;;;19.98;13.40;;;;;;;-0.72;100.00;100567.69;1840437;77;21117;-89
2021/03/08 02:38:40;;;;;;;;;;;;;;;-0.71;100.00;100569.37;1813530;78;21125;-90
2021/03/08 02:41:20;;;;;;;22.07;13.03;;;;;;;-0.71;100.00;100572.35;1837282;78;22116;-91
2021/03/08 02:44:12;;;;;;;20.40;14.10;;;;;;;-0.71;100.00;100568.52;1837759;78;21002;-89
2021/03/08 02:46:42;;;;;;;;;;;;;;;-0.71;100.00;100568.09;1840452;77;21062;-90
2021/03/08 02:49:21;;;;;;;21.95;13.80;;;;;;;-0.69;100.00;100560.37;1840751;77;20213;-90
2021/03/08 02:52:00;;;;;;;23.87;14.07;;;;;;;-0.70;100.00;100553.16;1838927;77;21065;-89
2021/03/08 02:54:31;;;;;;;19.95;14.20;;;;;;;-0.69;100.00;100559.09;1836507;77;21605;-90
2021/03/08 02:57:03;;;;;;;24.50;15.08;;;;;;;-0.69;100.00;100556.53;1810817;77;21114;-90
2021/03/08 02:59:42;;;;;;;20.32;14.28;;;;;;;-0.71;100.00;100564.26;1840811;77;21403;-90
2021/03/08 03:02:12;;;;;;;19.27;12.82;;;;;;;-0.73;100.00;100562.63;1839154;77;21156;-90
2021/03/08 03:04:43;;;;;;;21.73;14.35;;;;;;;-0.75;100.00;100556.27;1810822;78;21224;-90
2021/03/08 03:07:12;;;;;;;23.38;13.83;;;;;;;-0.77;100.00;100555.49;1840871;77;21348;-90
2021/03/08 03:09:42;;;;;;;21.00;13.90;;;;;;;-0.77;100.00;100558.05;1840861;77;21098;-91
2021/03/08 03:12:13;;;;;;;19.00;12.85;;;;;;;-0.77;100.00;100555.91;1840887;77;21571;-90
2021/03/08 03:14:43;;;;;;;21.20;13.58;;;;;;;-0.79;100.00;100555.97;1841047;77;21145;-90
2021/03/08 03:17:14;;;;;;;22.17;13.00;;;;;;;-0.78;100.00;100550.40;1840678;78;21145;-89
2021/03/08 03:19:51;;;;;;;19.40;13.72;;;;;;;-0.78;100.00;100552.53;1837183;78;21255;-90
2021/03/08 03:22:25;;;;;;;20.32;12.85;;;;;;;-0.78;100.00;100560.20;1837737;77;21077;-90
2021/03/08 03:24:56;;;;;;;20.97;14.15;;;;;;;-0.77;100.00;100554.64;1840809;77;21109;-90
2021/03/08 03:27:26;;;;;;;21.30;13.50;;;;;;;-0.76;100.00;100558.42;1840736;77;21129;-89
2021/03/08 03:29:55;;;;;;;18.65;12.88;;;;;;;-0.76;100.00;100558.42;1832384;78;21097;-89
2021/03/08 03:32:25;;;;;;;18.77;11.93;;;;;;;-0.78;100.00;100556.37;1829899;77;21511;-89
2021/03/08 03:34:55;;;;;;;17.87;11.97;;;;;;;-0.79;100.00;100555.97;1838817;77;21545;-89
2021/03/08 03:37:26;;;;;;;16.50;11.73;;;;;;;-0.81;100.00;100557.30;1840310;77;21073;-90
2021/03/08 03:39:54;;;;;;;16.65;11.68;;;;;;;-0.81;100.00;100557.72;1840207;77;21213;-90
2021/03/08 03:42:22;;;;;;;17.80;11.88;;;;;;;-0.83;100.00;100555.64;1840023;77;21125;-89
2021/03/08 03:44:50;;;;;;;17.05;11.33;;;;;;;-0.85;100.00;100551.04;1840206;78;21383;-89
2021/03/08 03:47:18;;;;;;;19.48;12.43;;;;;;;-0.86;100.00;100550.64;1840114;77;21221;-89
2021/03/08 03:49:46;;;;;;;17.80;11.57;;;;;;;-0.87;100.00;100548.95;1839970;77;21165;-90
2021/03/08 03:52:14;;;;;;;16.75;11.53;;;;;;;-0.88;100.00;100551.11;1840109;77;21109;-89
2021/03/08 03:54:43;;;;;;;21.60;12.93;;;;;;;-0.87;100.00;100552.80;1840135;77;21152;-89
2021/03/08 03:57:12;;;;;;;21.20;12.65;;;;;;;-0.88;100.00;100553.22;1840052;78;21353;-90
2021/03/08 03:59:54;;;;;;;26.48;14.70;;;;;;;-0.86;100.00;100550.19;1839961;78;21101;-89
2021/03/08 04:02:33;;;;;;;19.57;12.47;;;;;;;-0.87;100.00;100552.34;1836410;78;21571;-90
2021/03/08 04:05:03;;;;;;;22.37;12.93;;;;;;;-0.86;100.00;100550.64;1840007;77;21181;-91
2021/03/08 04:07:38;;;;;;;21.07;13.15;;;;;;;-0.88;100.00;100541.71;1832589;77;21160;-91
2021/03/08 04:10:11;;;;;;;18.45;12.80;;;;;;;-0.87;100.00;100548.95;1819086;78;22295;-89
2021/03/08 04:12:43;;;;;;;20.50;12.85;;;;;;;-0.87;100.00;100549.78;1835946;78;21085;-89
2021/03/08 04:15:13;;;;;;;17.50;11.60;;;;;;;-0.88;100.00;100545.55;1836335;77;21157;-90
2021/03/08 04:17:43;;;;;;;20.52;13.00;;;;;;;-0.88;100.00;100540.89;1839839;78;21157;-90
2021/03/08 04:20:16;;;;;;;21.23;11.97;;;;;;;-0.88;100.00;100544.72;1840144;78;21142;-90
2021/03/08 04:22:51;;;;;;;19.17;12.50;;;;;;;-0.89;100.00;100537.93;1835988;77;21591;-90
2021/03/08 04:25:20;;;;;;;17.95;11.78;;;;;;;-0.90;100.00;100542.22;1837123;77;21046;-90
2021/03/08 04:27:51;;;;;;;21.25;12.68;;;;;;;-0.89;100.00;100546.88;1809669;78;21070;-89
2021/03/08 04:30:20;;;;;;;21.13;13.23;;;;;;;-0.88;100.00;100544.27;1840196;77;21188;-90
2021/03/08 04:32:52;;;;;;;20.52;11.68;;;;;;;-0.88;100.00;100544.72;1840137;78;21141;-89
2021/03/08 04:35:24;;;;;;;18.48;11.93;;;;;;;-0.88;100.00;100540.44;1839953;77;21192;-90
2021/03/08 04:37:53;;;;;;;20.27;12.75;;;;;;;-0.85;100.00;100540.36;1839909;78;21161;-90
2021/03/08 04:40:22;;;;;;;17.80;12.25;;;;;;;-0.86;100.00;100534.02;1839992;77;21161;-90
2021/03/08 04:42:51;;;;;;;16.23;11.57;;;;;;;-0.87;100.00;100533.16;1839967;77;21596;-90
2021/03/08 04:45:20;;;;;;;16.02;11.12;;;;;;;-0.87;100.00;100532.34;1839991;78;21439;-89
2021/03/08 04:47:50;;;;;;;17.45;12.15;;;;;;;-0.87;100.00;100539.55;1839993;77;21184;-90
2021/03/08 04:50:18;;;;;;;20.25;12.58;;;;;;;-0.88;100.00;100533.22;1809876;78;21208;-90
2021/03/08 04:52:49;;;;;;;21.12;12.43;;;;;;;-0.89;100.00;100535.37;1839975;78;21153;-90
2021/03/08 04:55:18;;;;;;;19.15;12.37;;;;;;;-0.91;100.00;100535.42;1839947;77;21122;-89
2021/03/08 04:57:46;;;;;;;18.42;11.57;;;;;;;-0.91;100.00;100539.27;1840060;78;21042;-89
2021/03/08 05:00:15;;;;;;;17.40;10.80;;;;;;;-0.90;100.00;100545.20;1840047;77;21237;-90
2021/03/08 05:02:45;;;;;;;16.90;11.78;;;;;;;-0.90;100.00;100549.89;1839880;77;21208;-90
2021/03/08 05:05:18;;;;;;;;;;;;;;;-0.91;100.00;100541.82;1842598;78;21081;-89
2021/03/08 05:07:49;;;;;;;16.10;10.65;;;;;;;-0.92;100.00;100537.58;1840144;77;20238;-90
2021/03/08 05:10:19;;;;;;;24.63;12.85;;;;;;;-0.92;100.00;100544.42;1840214;78;21118;-90
2021/03/08 05:12:50;;;;;;;20.95;11.43;;;;;;;-0.92;100.00;100541.41;1819038;76;21541;-90
2021/03/08 05:15:24;;;;;;;;;;;;;;;-0.81;100.00;100540.68;1805800;79;21498;-91
2021/03/08 05:17:58;;;;;;;55.75;15.28;;;;;;;-0.54;100.00;100534.79;1821313;78;20487;-90
2021/03/08 05:20:29;;;;;;;24.25;12.82;;;;;;;-0.35;100.00;100535.88;1840010;78;21228;-90
2021/03/08 05:23:00;;;;;;;18.25;12.33;;;;;;;-0.20;100.00;100535.03;1839994;77;21609;-91
2021/03/08 05:25:31;;;;;;;32.75;12.85;;;;;;;-0.25;100.00;100536.45;1840257;77;21359;-90
2021/03/08 05:28:00;;;;;;;18.12;12.75;;;;;;;-0.33;100.00;100537.96;1835568;78;21126;-91
2021/03/08 05:30:29;;;;;;;23.15;13.40;;;;;;;-0.38;100.00;100533.44;1840123;77;21625;-90
2021/03/08 05:33:18;;;;;;;49.65;15.72;;;;;;;-0.43;100.00;100534.00;1838928;77;21105;-90
2021/03/08 05:35:53;;;;;;;29.42;13.78;;;;;;;-0.41;100.00;100538.64;1824875;77;21113;-91
2021/03/08 05:38:29;;;;;;;26.33;15.58;;;;;;;-0.14;100.00;100541.23;1837584;78;21366;-90
2021/03/08 05:41:23;;;;;;;20.10;12.58;;;;;;;0.11;100.00;100550.23;1822323;78;21129;-90
2021/03/08 05:43:55;;;;;;;19.70;12.68;;;;;;;0.25;100.00;100561.31;1816203;77;21149;-91
2021/03/08 05:46:34;;;;;;;27.70;13.62;;;;;;;0.18;100.00;100548.31;1823431;78;21122;-91
2021/03/08 05:49:26;;;;;;;20.00;13.03;;;;;;;0.10;100.00;100554.95;1824749;78;21113;-91
2021/03/08 05:52:38;;;;;;;30.32;13.15;;;;;;;0.01;100.00;100554.42;1807449;79;21419;-89
2021/03/08 05:55:41;;;;;;;39.18;15.48;;;;;;;0.02;100.00;100553.55;1807327;78;21157;-91
2021/03/08 05:58:38;;;;;;;24.32;13.35;;;;;;;0.24;100.00;100554.97;1807067;79;21103;-89
2021/03/08 06:01:23;;;;;;;22.32;13.62;;;;;;;0.39;100.00;100554.88;1795814;78;21118;-90
2021/03/08 06:08:58;;;;;;;25.57;15.65;;;;;;;0.54;100.00;100550.52;1839078;78;21221;-91
2021/03/08 06:11:31;;;;;;;37.58;17.02;;;;;;;0.52;100.00;100551.00;1830013;76;21165;-88
2021/03/08 06:14:01;;;;;;;33.15;16.48;;;;;;;0.54;100.00;100541.55;1828970;76;21097;-89
2021/03/08 06:16:33;;;;;;;;;;;;;;;0.57;100.00;100549.14;1824213;78;21093;-90
2021/03/08 06:19:05;;;;;;;35.63;19.42;;;;;;;0.61;100.00;100546.02;1807095;78;20267;-90
2021/03/08 06:21:35;;;;;;;37.30;18.10;;;;;;;0.65;100.00;100548.03;1807520;79;21632;-90
2021/03/08 06:24:08;;;;;;;34.30;19.77;;;;;;;0.66;100.00;100548.43;1813051;79;21168;-90
2021/03/08 06:26:36;;;;;;;28.50;18.77;;;;;;;0.68;100.00;100550.50;1807550;77;21202;-89
2021/03/08 06:29:06;;;;;;;34.25;19.32;;;;;;;0.70;100.00;100548.70;1821338;76;21544;-90
2021/03/08 06:31:38;;;;;;;30.23;16.73;;;;;;;0.73;100.00;100549.89;1761675;80;21169;-90
2021/03/08 06:34:09;;;;;;;33.55;19.27;;;;;;;0.73;100.00;100548.61;1753055;80;21241;-90
2021/03/08 06:36:45;;;;;;;42.45;20.55;;;;;;;0.74;100.00;100543.41;1749534;82;21123;-91
2021/03/08 06:39:13;;;;;;;36.03;21.48;;;;;;;0.76;100.00;100549.33;1749747;82;21162;-91
2021/03/08 06:41:41;;;;;;;35.05;22.07;;;;;;;0.79;100.00;100545.81;1763934;80;21151;-91
2021/03/08 06:44:11;;;;;;;38.85;22.25;;;;;;;0.78;100.00;100537.30;1763919;81;21123;-91
2021/03/08 06:46:46;;;;;;;34.20;22.25;;;;;;;0.82;100.00;100538.45;1763941;80;21527;-90
2021/03/08 06:56:49;;;;;;;37.67;23.05;;;;;;;1.00;100.00;100535.70;1777292;80;21146;-90
2021/03/08 07:03:41;;;;;;;35.40;21.87;;;;;;;1.09;100.00;100527.64;1787224;80;21810;-90
2021/03/08 07:18:55;;;;;;;32.45;21.48;;;;;;;1.38;100.00;100520.13;1788601;80;21352;-87
2021/03/08 07:29:23;;;;;;;30.02;19.75;;;;;;;1.60;95.27;100507.77;1774848;80;21108;-87
2021/03/08 07:35:55;;;;;;;27.15;19.50;;;;;;;1.80;94.89;100506.13;1777967;80;21105;-87
2021/03/08 07:42:00;;;;;;;29.57;20.00;;;;;;;1.93;92.65;100496.20;1758017;79;21627;-87
2021/03/08 07:44:30;;;;;;;29.40;19.27;;;;;;;1.99;92.07;100495.94;1748585;79;21226;-87
2021/03/08 07:47:15;;;;;;;29.00;19.82;;;;;;;2.04;90.67;100490.19;1737175;80;21306;-86
2021/03/08 07:49:44;;;;;;;28.15;19.30;;;;;;;2.11;91.52;100488.17;1758449;80;21159;-87
2021/03/08 07:52:15;;;;;;;29.85;20.62;;;;;;;2.21;89.92;100487.72;1746266;80;21209;-87
2021/03/08 07:58:16;;;;;;;26.30;18.32;;;;;;;2.42;86.85;100481.72;1758579;80;21172;-86
2021/03/08 08:00:44;;;;;;;29.60;19.92;;;;;;;2.53;85.17;100477.78;1738387;81;21269;-85
2021/03/08 08:03:13;;;;;;;27.50;18.55;;;;;;;2.63;86.33;100481.25;1728574;81;21576;-86
2021/03/08 08:05:42;;;;;;;27.93;19.32;;;;;;;2.72;84.73;100474.87;1728385;81;21206;-87
2021/03/08 08:08:13;;;;;;;29.07;19.62;;;;;;;2.80;81.83;100474.91;1730351;80;21194;-86
2021/03/08 08:10:43;;;;;;;30.30;20.20;;;;;;;2.83;79.98;100464.49;1732952;81;21250;-86
2021/03/08 08:13:12;;;;;;;29.95;20.27;;;;;;;2.91;79.55;100473.59;1728199;81;21099;-86
2021/03/08 08:15:43;;;;;;;34.48;23.32;;;;;;;2.96;78.26;100473.78;1733078;81;21146;-86
2021/03/08 08:18:15;;;;;;;38.30;23.55;;;;;;;2.99;78.67;100468.94;1730285;81;22792;-86
2021/03/08 08:20:46;;;;;;;35.55;21.82;;;;;;;2.99;78.89;100471.51;1716737;82;21167;-86
2021/03/08 08:23:15;;;;;;;33.05;20.68;;;;;;;3.00;80.23;100476.58;1731182;81;21146;-86
2021/03/08 08:25:45;;;;;;;32.90;21.62;;;;;;;2.99;78.70;100472.80;1758365;80;21552;-86
2021/03/08 08:28:18;;;;;;;32.45;21.77;;;;;;;2.98;76.83;100468.55;1729229;81;21134;-86
2021/03/08 08:30:58;;;;;;;31.97;21.48;;;;;;;2.98;78.85;100470.66;1726026;81;21578;-89
2021/03/08 08:33:31;;;;;;;32.60;21.93;;;;;;;3.00;80.64;100475.29;1741692;80;21495;-87
2021/03/08 08:36:12;;;;;;;33.00;20.15;;;;;;;3.08;80.56;100474.95;1729717;81;21203;-87
2021/03/08 08:38:55;;;;;;;28.45;19.00;;;;;;;3.14;77.55;100475.95;1698595;83;21174;-87
2021/03/08 08:41:41;;;;;;;33.50;22.27;;;;;;;3.18;79.75;100477.07;1728383;81;21721;-87
2021/03/08 08:44:15;;;;;;;31.25;20.00;;;;;;;3.22;78.76;100471.72;1728195;81;21367;-88
2021/03/08 08:46:46;;;;;;;26.15;17.80;;;;;;;3.28;79.00;100471.89;1728167;81;21139;-87
2021/03/08 08:49:20;;;;;;;32.40;22.15;;;;;;;3.36;75.07;100481.37;1728318;82;21163;-87
2021/03/08 08:51:56;;;;;;;23.55;16.00;;;;;;;3.43;75.33;100474.20;1731882;80;21644;-87
2021/03/08 08:54:32;;;;;;;26.82;17.85;;;;;;;3.48;75.01;100461.47;1747016;80;21127;-87
2021/03/08 08:57:11;;;;;;;28.77;20.12;;;;;;;3.50;73.23;100465.71;1747386;80;21368;-87
2021/03/08 08:59:49;;;;;;;27.42;17.20;;;;;;;3.50;75.62;100461.85;1744129;81;21137;-87
2021/03/08 09:02:23;;;;;;;30.90;20.57;;;;;;;3.55;75.98;100459.44;1753226;81;21171;-87
2021/03/08 09:04:50;;;;;;;29.02;20.23;;;;;;;3.65;79.67;100456.42;1688460;84;21139;-87
2021/03/08 09:07:28;;;;;;;28.45;18.77;;;;;;;3.78;74.83;100453.62;1726938;81;21587;-87
2021/03/08 09:10:00;;;;;;;30.45;18.82;;;;;;;3.95;71.41;100454.09;1750567;80;22269;-88
2021/03/08 09:12:38;;;;;;;23.85;15.98;;;;;;;4.13;74.01;100439.91;1747172;80;21212;-87
2021/03/08 09:15:09;;;;;;;27.62;17.98;;;;;;;4.25;66.29;100445.23;1747701;80;21615;-87
2021/03/08 09:17:47;;;;;;;27.02;19.12;;;;;;;4.29;69.60;100445.91;1728167;81;21138;-88
2021/03/08 09:20:24;;;;;;;28.23;19.25;;;;;;;4.33;69.16;100446.14;1741447;81;21079;-87
2021/03/08 09:22:58;;;;;;;29.15;18.02;;;;;;;4.41;70.86;100441.86;1728199;81;22294;-87
2021/03/08 09:25:33;;;;;;;28.38;20.65;;;;;;;4.48;66.41;100443.67;1726673;82;21195;-88
2021/03/08 09:28:05;;;;;;;25.43;18.55;;;;;;;4.50;67.21;100437.99;1726125;81;21084;-87
2021/03/08 09:30:43;;;;;;;30.20;20.45;;;;;;;4.52;64.63;100440.04;1724098;82;21087;-87
2021/03/08 09:33:17;;;;;;;29.80;21.55;;;;;;;4.55;67.96;100446.31;1707346;82;21170;-87
2021/03/08 09:35:54;;;;;;;31.10;21.33;;;;;;;4.60;64.49;100447.36;1726122;81;21104;-87
2021/03/08 09:38:24;;;;;;;26.15;18.52;;;;;;;4.54;63.00;100444.64;1726150;81;21546;-87
2021/03/08 09:40:59;;;;;;;27.13;19.10;;;;;;;4.48;63.65;100453.55;1742560;80;21182;-87
2021/03/08 09:43:35;;;;;;;33.02;22.55;;;;;;;4.42;63.76;100445.67;1726205;83;21103;-86
2021/03/08 09:46:10;;;;;;;28.47;19.20;;;;;;;4.40;66.05;100444.09;1752477;80;21718;-88
2021/03/08 09:48:42;;;;;;;28.87;20.05;;;;;;;4.44;65.08;100451.21;1742748;80;21591;-88
2021/03/08 09:51:19;;;;;;;35.45;21.97;;;;;;;4.49;66.36;100435.84;1740065;81;21199;-86
2021/03/08 09:53:55;;;;;;;30.30;20.68;;;;;;;4.62;70.97;100446.36;1753898;80;21489;-86
2021/03/08 09:56:27;;;;;;;29.12;21.57;;;;;;;4.76;66.34;100435.78;1747808;80;21504;-89
2021/03/08 09:59:10;;;;;;;30.00;20.52;;;;;;;4.86;67.54;100430.48;1726871;81;21863;-87
2021/03/08 10:01:38;;;;;;;28.62;19.65;;;;;;;4.92;66.89;100422.87;1730766;80;21430;-90
2021/03/08 10:04:19;;;;;;;29.75;20.77;;;;;;;4.92;65.31;100434.04;1735491;81;21119;-90
2021/03/08 10:07:22;;;;;;;23.67;16.42;;;;;;;4.93;66.80;100429.23;1741900;81;21163;-90
2021/03/08 10:10:21;;;;;;;20.88;13.85;;;;;;;4.90;63.06;100422.48;1745444;81;21132;-91
2021/03/08 10:13:02;;;;;;;26.45;16.45;;;;;;;4.74;62.74;100414.77;1738492;81;21056;-91
2021/03/08 10:15:52;;;;;;;20.27;12.28;;;;;;;4.63;64.05;100423.52;1739517;81;22210;-90
2021/03/08 10:18:29;;;;;;;19.25;11.05;;;;;;;4.61;64.88;100418.08;1739705;80;21140;-90
2021/03/08 10:21:03;;;;;;;24.85;17.17;;;;;;;4.57;62.44;100431.59;1728142;81;21116;-90
2021/03/08 10:27:22;;;;;;;23.25;12.63;;;;;;;4.26;64.74;100435.31;1722212;82;21535;-89
2021/03/08 10:29:52;;;;;;;27.07;17.48;;;;;;;4.06;63.12;100422.63;1736669;80;21211;-89
2021/03/08 10:32:23;;;;;;;19.65;13.08;;;;;;;3.92;65.36;100420.30;1745501;80;21191;-89
2021/03/08 10:34:52;;;;;;;;;;;;;;;3.86;65.65;100427.49;1715057;81;21529;-89
2021/03/08 10:37:21;;;;;;;20.55;12.68;;;;;;;3.88;66.72;100415.38;1753613;80;20246;-89
2021/03/08 10:39:51;;;;;;;12.93;8.13;;;;;;;3.99;69.31;100416.94;1733056;81;21084;-89
2021/03/08 10:42:21;;;;;;;18.77;12.30;;;;;;;4.10;62.83;100415.95;1723656;81;21450;-89
2021/03/08 10:44:51;;;;;;;28.60;20.70;;;;;;;4.09;63.57;100410.41;1733041;81;21135;-89
2021/03/08 10:47:19;;;;;;;19.75;13.18;;;;;;;4.09;66.04;100419.87;1731071;81;21187;-89
2021/03/08 10:49:51;;;;;;;31.20;17.48;;;;;;;4.09;66.13;100415.56;1723778;81;21127;-89
2021/03/08 10:52:21;;;;;;;24.40;13.60;;;;;;;4.09;65.67;100409.13;1731114;80;21631;-89
2021/03/08 10:54:50;;;;;;;28.87;19.47;;;;;;;4.08;64.22;100398.91;1739819;81;21467;-89
2021/03/08 10:57:20;;;;;;;24.15;16.85;;;;;;;4.09;67.90;100405.70;1736141;81;21170;-89
2021/03/08 10:59:52;;;;;;;28.87;18.35;;;;;;;4.15;65.34;100400.25;1737359;80;21550;-88
2021/03/08 11:02:21;;;;;;;51.77;33.53;;;;;;;4.26;66.61;100402.27;1788565;78;21204;-88
2021/03/08 11:05:06;;;;;;;34.78;24.72;;;;;;;4.35;64.97;100388.91;1791379;78;21641;-89
2021/03/08 11:07:34;;;;;;;38.10;20.50;;;;;;;4.38;65.52;100395.64;1785216;78;22182;-89
2021/03/08 11:10:07;;;;;;;23.92;13.58;;;;;;;4.35;63.64;100391.48;1789628;79;21577;-89
2021/03/08 11:12:35;;;;;;;24.63;14.43;;;;;;;4.24;59.46;100379.59;1792527;78;21150;-89
2021/03/08 11:15:05;;;;;;;25.88;16.05;;;;;;;4.17;63.14;100380.83;1788872;79;21137;-88
2021/03/08 11:17:43;;;;;;;25.77;17.30;;;;;;;4.10;63.19;100392.76;1788494;78;21208;-88
2021/03/08 11:20:19;;;;;;;23.40;15.30;;;;;;;4.07;63.95;100377.91;1803882;79;22074;-89
2021/03/08 11:23:02;;;;;;;18.05;10.40;;;;;;;4.02;63.98;100380.72;1808767;79;21180;-88
2021/03/08 11:25:39;;;;;;;29.92;19.75;;;;;;;4.01;64.58;100384.20;1809520;77;22158;-89
2021/03/08 11:28:15;;;;;;;26.60;19.90;;;;;;;4.03;66.66;100378.52;1796134;78;21126;-89
2021/03/08 11:30:50;;;;;;;29.48;18.77;;;;;;;4.08;69.32;100377.00;1825788;78;21193;-84
2021/03/08 11:33:19;;;;;;;28.38;18.37;;;;;;;4.13;67.38;100372.90;1825687;78;21516;-85
2021/03/08 11:35:55;;;;;;;29.55;22.22;;;;;;;4.18;64.77;100373.48;1812218;78;21486;-84
2021/03/08 11:38:31;;;;;;;28.47;20.12;;;;;;;4.23;64.13;100368.91;1796387;79;21184;-83
2021/03/08 11:40:59;;;;;;;59.73;40.90;;;;;;;4.28;64.35;100361.78;1821742;78;21497;-83
2021/03/08 11:43:27;;;;;;;21.23;14.98;;;;;;;4.29;63.98;100363.89;1828694;78;21173;-84
2021/03/08 11:45:56;;;;;;;26.68;17.37;;;;;;;4.24;63.02;100371.86;1828870;78;21358;-84
2021/03/08 11:48:31;;;;;;;25.62;18.40;;;;;;;4.21;63.37;100365.13;1828895;77;21149;-84
2021/03/08 11:51:04;;;;;;;26.82;18.57;;;;;;;4.20;64.99;100370.38;1828809;77;21146;-84
2021/03/08 11:53:36;;;;;;;27.15;20.40;;;;;;;4.23;65.46;100363.31;1828884;78;21153;-83
2021/03/08 11:56:31;;;;;;;;;;;;;;;4.26;65.19;100366.18;1828507;78;21130;-83
2021/03/08 11:59:00;;;;;;;24.45;14.95;;;;;;;4.30;64.83;100362.98;1828787;77;21328;-83
2021/03/08 12:01:29;;;;;;;23.40;14.13;;;;;;;4.34;64.60;100362.74;1828870;78;21054;-83
2021/03/08 12:03:58;;;;;;;26.37;17.67;;;;;;;4.44;62.79;100363.08;1828855;77;21181;-84
2021/03/08 12:06:26;;;;;;;25.75;17.87;;;;;;;4.44;62.71;100358.39;1828765;78;21145;-84
2021/03/08 12:08:58;;;;;;;26.75;18.15;;;;;;;4.37;62.16;100361.27;1828865;78;21118;-84
2021/03/08 12:11:26;;;;;;;26.52;19.85;;;;;;;4.32;64.96;100363.27;1829037;77;21354;-84
2021/03/08 12:13:54;;;;;;;27.35;18.62;;;;;;;4.31;68.12;100364.18;1822435;78;21142;-83
2021/03/08 12:16:23;;;;;;;24.57;17.85;;;;;;;4.23;66.68;100362.47;1828781;77;21165;-84
2021/03/08 12:18:55;;;;;;;23.38;16.32;;;;;;;4.13;66.46;100368.56;1807376;78;21042;-84
2021/03/08 12:21:25;;;;;;;24.25;17.23;;;;;;;4.06;68.50;100371.91;1796194;79;21609;-83
2021/03/08 12:23:55;;;;;;;22.90;15.30;;;;;;;4.02;66.85;100369.13;1796327;79;22715;-83
2021/03/08 12:26:25;;;;;;;22.48;14.50;;;;;;;4.02;68.68;100374.28;1798299;79;21612;-84
2021/03/08 12:28:53;;;;;;;21.85;15.05;;;;;;;4.03;65.89;100373.38;1804369;79;21193;-84
2021/03/08 12:31:21;;;;;;;22.95;15.83;;;;;;;4.07;66.65;100376.63;1829459;77;21641;-84